Time;durP1;ratioP1;P1;durP2;ratioP2;P2;SDS_P1;SDS_P2;PMS_P1;PMS_P2;Temp;Humidity;BMP_temperature;BMP_pressure;BME280_temperature;BME280_humidity;BME280_pressure;Samples;Min_cycle;Max_cycle;Signal;HPM_P1;HPM_P2
2021/04/07 04:15:28;;;;;;;4.68;0.88;;;2.70;99.30;;;;;;5083017;28;20090;-64
2021/04/07 04:17:54;;;;;;;2.28;1.20;;;2.70;98.90;;;;;;5090322;28;20047;-63
2021/04/07 04:20:20;;;;;;;1.30;0.75;;;2.80;99.00;;;;;;5091872;28;20078;-64
2021/04/07 04:22:47;;;;;;;0.70;0.70;;;2.80;98.70;;;;;;5091958;28;20059;-64
2021/04/07 04:25:18;;;;;;;1.20;0.80;;;2.80;98.70;;;;;;5091850;28;20020;-63
2021/04/07 04:27:44;;;;;;;3.08;0.90;;;2.90;98.60;;;;;;5091724;28;20032;-64
2021/04/07 04:30:12;;;;;;;2.95;0.70;;;2.90;98.70;;;;;;5091434;28;20099;-64
2021/04/07 04:32:38;;;;;;;1.40;0.73;;;2.90;99.10;;;;;;5091740;28;20028;-65
2021/04/07 04:35:04;;;;;;;4.30;1.05;;;3.00;99.10;;;;;;5091480;28;20020;-70
2021/04/07 04:37:30;;;;;;;2.08;0.95;;;3.00;99.00;;;;;;5091542;28;20024;-67
2021/04/07 04:39:56;;;;;;;4.00;1.17;;;3.20;99.90;;;;;;5091690;28;20031;-69
2021/04/07 04:42:22;;;;;;;4.78;1.10;;;3.50;99.90;;;;;;5091570;28;20032;-69
2021/04/07 04:44:47;;;;;;;1.75;0.80;;;3.50;98.60;;;;;;5091266;28;20063;-67
2021/04/07 04:47:13;;;;;;;2.83;0.90;;;3.40;98.40;;;;;;5091365;28;20107;-69
2021/04/07 04:49:39;;;;;;;2.33;0.80;;;3.40;99.00;;;;;;5091590;28;20084;-70
2021/04/07 04:52:05;;;;;;;8.30;2.33;;;3.30;98.40;;;;;;5091451;28;20432;-68
2021/04/07 04:54:31;;;;;;;3.33;1.00;;;3.30;98.20;;;;;;5094504;28;20051;-68
2021/04/07 04:56:56;;;;;;;2.50;0.88;;;3.30;98.50;;;;;;5095626;28;20016;-67
2021/04/07 04:59:22;;;;;;;5.03;1.00;;;3.30;98.20;;;;;;5094725;28;20468;-68
2021/04/07 05:01:48;;;;;;;1.50;0.80;;;3.20;96.90;;;;;;5094895;28;20016;-68
2021/04/07 05:04:14;;;;;;;2.90;1.17;;;3.20;97.00;;;;;;5094785;28;20479;-68
2021/04/07 05:06:39;;;;;;;2.50;0.93;;;3.20;97.00;;;;;;5092273;28;20473;-68
2021/04/07 05:09:06;;;;;;;4.30;1.08;;;3.20;96.50;;;;;;5095225;28;20020;-68
2021/04/07 05:11:32;;;;;;;4.30;1.17;;;3.10;96.10;;;;;;5084518;28;20028;-66
2021/04/07 05:13:59;;;;;;;2.83;1.00;;;3.20;96.10;;;;;;5089103;28;20122;-68
2021/04/07 05:16:25;;;;;;;3.67;1.05;;;3.10;96.00;;;;;;5095064;28;20024;-67
2021/04/07 05:18:51;;;;;;;5.28;0.90;;;3.10;95.50;;;;;;5094278;28;20028;-67
2021/04/07 05:21:17;;;;;;;1.88;0.90;;;3.10;95.50;;;;;;5085429;28;20477;-68
2021/04/07 05:23:43;;;;;;;1.23;0.85;;;3.00;95.40;;;;;;5091290;28;20118;-73
2021/04/07 05:26:08;;;;;;;1.38;1.00;;;3.00;95.60;;;;;;5094621;28;20031;-72
2021/04/07 05:28:34;;;;;;;1.75;0.80;;;3.10;95.60;;;;;;5094727;28;20020;-69
2021/04/07 05:31:01;;;;;;;4.38;1.45;;;3.10;95.40;;;;;;5094748;28;20111;-71
2021/04/07 05:33:36;;;;;;;5.28;1.60;;;3.10;96.60;;;;;;5094865;28;20036;-71
2021/04/07 05:36:05;;;;;;;3.28;1.27;;;3.20;94.90;;;;;;5094217;28;20028;-75
2021/04/07 05:38:31;;;;;;;3.42;1.00;;;3.30;94.20;;;;;;5094656;28;20043;-75
2021/04/07 05:40:58;;;;;;;2.67;0.90;;;4.10;99.90;;;;;;5094743;28;20407;-74
2021/04/07 05:43:24;;;;;;;2.72;0.95;;;4.00;92.60;;;;;;5094472;28;20032;-75
2021/04/07 05:45:51;;;;;;;4.03;0.95;;;3.80;91.90;;;;;;5094526;28;20107;-75
2021/04/07 05:48:17;;;;;;;6.45;1.15;;;3.70;90.80;;;;;;5094574;28;20024;-75
2021/04/07 05:50:48;;;;;;;2.03;0.75;;;3.50;91.10;;;;;;5094206;28;20016;-75
2021/04/07 05:53:14;;;;;;;3.28;1.00;;;3.40;91.50;;;;;;5094658;28;20028;-75
2021/04/07 05:55:47;;;;;;;1.70;1.00;;;3.40;91.20;;;;;;5094185;28;20027;-74
2021/04/07 05:58:14;;;;;;;4.38;1.10;;;3.40;91.00;;;;;;5094338;28;20027;-74
2021/04/07 06:00:40;;;;;;;2.13;1.05;;;3.60;90.70;;;;;;5094214;28;20024;-74
2021/04/07 06:03:07;;;;;;;3.67;1.10;;;3.80;90.40;;;;;;5109973;28;20147;-75
2021/04/07 06:05:38;;;;;;;2.28;0.82;;;4.10;88.60;;;;;;5094117;28;20025;-75
2021/04/07 06:08:04;;;;;;;1.60;0.90;;;4.30;86.00;;;;;;5094475;28;20036;-75
2021/04/07 06:10:32;;;;;;;2.22;0.75;;;4.40;84.40;;;;;;5094163;28;20020;-76
2021/04/07 06:12:59;;;;;;;9.27;1.58;;;5.00;87.90;;;;;;5091337;28;20008;-77
2021/04/07 06:15:26;;;;;;;1.40;0.90;;;5.40;84.80;;;;;;5095589;28;20081;-78
2021/04/07 06:18:05;;;;;;;6.15;0.98;;;5.60;79.30;;;;;;5090557;28;20024;-77
2021/04/07 06:20:34;;;;;;;2.50;0.83;;;5.80;77.70;;;;;;5093438;28;20458;-72
2021/04/07 06:23:01;;;;;;;4.57;1.02;;;5.90;76.10;;;;;;5089940;28;20066;-68
2021/04/07 06:25:27;;;;;;;3.03;1.10;;;5.90;74.80;;;;;;5093487;28;20395;-70
2021/04/07 06:27:55;;;;;;;4.30;0.73;;;6.10;74.90;;;;;;5093530;28;20017;-73
2021/04/07 06:30:40;;;;;;;2.67;1.00;;;6.30;74.00;;;;;;5093553;28;20107;-73
2021/04/07 06:33:23;;;;;;;3.20;0.75;;;6.50;73.10;;;;;;5093891;28;20044;-72
2021/04/07 06:35:49;;;;;;;2.65;0.73;;;6.70;72.20;;;;;;5086688;28;20016;-70
2021/04/07 06:38:16;;;;;;;2.22;0.73;;;7.00;71.80;;;;;;5093607;28;20111;-69
2021/04/07 06:40:43;;;;;;;3.13;0.90;;;7.20;70.80;;;;;;5092827;28;20028;-69
2021/04/07 06:43:09;;;;;;;2.88;1.10;;;7.20;69.30;;;;;;5093280;28;20036;-69
2021/04/07 06:45:38;;;;;;;3.15;1.23;;;7.20;68.60;;;;;;5092197;28;20340;-69
2021/04/07 06:48:05;;;;;;;3.78;0.95;;;7.10;68.50;;;;;;5087291;28;20109;-69
2021/04/07 06:50:30;;;;;;;3.38;0.80;;;7.20;68.50;;;;;;5092569;28;20090;-69
2021/04/07 06:52:58;;;;;;;3.08;1.08;;;7.30;68.30;;;;;;5091790;28;20019;-70
2021/04/07 06:55:25;;;;;;;3.78;0.98;;;7.10;67.20;;;;;;5092805;28;20712;-68
2021/04/07 06:57:51;;;;;;;1.85;0.80;;;7.10;67.20;;;;;;5092741;28;20024;-70
2021/04/07 07:00:18;;;;;;;3.65;0.93;;;6.90;65.40;;;;;;5093204;28;20103;-70
2021/04/07 07:02:44;;;;;;;3.80;1.05;;;6.80;66.50;;;;;;5093014;28;20369;-70
2021/04/07 07:05:10;;;;;;;3.65;1.20;;;6.80;67.30;;;;;;5087018;28;20538;-71
2021/04/07 07:07:36;;;;;;;5.07;1.10;;;6.90;66.30;;;;;;5092666;28;20024;-70
2021/04/07 07:10:03;;;;;;;2.47;0.80;;;6.80;65.80;;;;;;5092866;28;20081;-71
2021/04/07 07:12:31;;;;;;;1.77;0.77;;;6.70;66.60;;;;;;5091436;28;20054;-65
2021/04/07 07:15:02;;;;;;;1.83;0.70;;;6.80;68.80;;;;;;5091419;28;20805;-70
2021/04/07 07:17:32;;;;;;;3.63;0.90;;;7.30;68.40;;;;;;5091800;28;20502;-70
2021/04/07 07:19:58;;;;;;;1.85;0.80;;;7.00;65.00;;;;;;5092471;28;20085;-67
2021/04/07 07:22:28;;;;;;;3.25;0.80;;;6.80;65.00;;;;;;5093179;28;20024;-69
2021/04/07 07:24:59;;;;;;;3.13;0.82;;;6.70;66.10;;;;;;5092861;28;20032;-70
2021/04/07 07:27:42;;;;;;;3.42;1.00;;;6.70;65.20;;;;;;5091891;28;20020;-69
2021/04/07 07:30:10;;;;;;;2.00;0.70;;;6.60;64.70;;;;;;5092160;28;20418;-71
2021/04/07 07:32:39;;;;;;;1.55;0.68;;;6.60;65.00;;;;;;5092980;28;20024;-68
2021/04/07 07:35:06;;;;;;;5.00;1.00;;;6.40;64.80;;;;;;5090635;28;20023;-64
2021/04/07 07:37:32;;;;;;;4.40;1.00;;;6.90;73.30;;;;;;5092829;28;20539;-64
2021/04/07 07:39:58;;;;;;;1.77;0.60;;;7.00;65.90;;;;;;5092756;28;20123;-66
2021/04/07 07:42:24;;;;;;;3.78;0.95;;;6.70;63.70;;;;;;5092713;28;20020;-66
2021/04/07 07:44:50;;;;;;;5.22;0.88;;;6.50;63.80;;;;;;5092430;28;20030;-63
2021/04/07 07:47:24;;;;;;;5.32;0.82;;;6.30;63.80;;;;;;5092195;28;20502;-63
2021/04/07 07:49:59;;;;;;;4.40;0.90;;;6.10;63.20;;;;;;5091855;28;20119;-63
2021/04/07 07:52:36;;;;;;;3.53;0.93;;;5.90;63.50;;;;;;5091983;28;20060;-63
2021/04/07 07:55:14;;;;;;;2.42;0.60;;;6.10;70.80;;;;;;5092028;28;20103;-64
2021/04/07 07:57:57;;;;;;;8.00;1.00;;;6.60;71.60;;;;;;5090543;28;20073;-66
2021/04/07 08:00:24;;;;;;;1.35;0.68;;;6.80;66.10;;;;;;5092756;28;20024;-65
2021/04/07 08:02:54;;;;;;;11.27;1.20;;;6.70;65.30;;;;;;5093319;28;20543;-64
2021/04/07 08:05:23;;;;;;;3.53;0.85;;;6.70;65.40;;;;;;5092199;28;20484;-64
2021/04/07 08:07:50;;;;;;;2.63;0.70;;;6.60;65.00;;;;;;5091535;28;20031;-67
2021/04/07 08:10:15;;;;;;;2.05;0.88;;;6.50;64.80;;;;;;5092339;28;20024;-67
2021/04/07 08:12:42;;;;;;;4.82;1.20;;;6.50;64.90;;;;;;5092234;28;20024;-67
2021/04/07 08:15:10;;;;;;;2.13;0.88;;;6.50;64.80;;;;;;5091996;28;20056;-67
2021/04/07 08:17:36;;;;;;;3.65;0.90;;;6.50;64.90;;;;;;5092272;28;20153;-66
2021/04/07 08:20:04;;;;;;;3.60;0.88;;;6.50;64.70;;;;;;5092084;28;20032;-64
2021/04/07 08:22:34;;;;;;;3.03;0.80;;;6.60;64.00;;;;;;5091639;28;20573;-65
2021/04/07 08:25:05;;;;;;;2.10;0.90;;;6.60;64.10;;;;;;5088645;28;20038;-65
2021/04/07 08:27:34;;;;;;;2.45;0.90;;;6.70;71.40;;;;;;5090292;28;20063;-64
2021/04/07 08:30:01;;;;;;;5.25;0.95;;;7.00;65.80;;;;;;5089491;28;20426;-70
2021/04/07 08:32:27;;;;;;;7.60;0.95;;;6.90;64.00;;;;;;5091444;28;20357;-72
2021/04/07 08:34:53;;;;;;;5.93;1.45;;;6.70;63.60;;;;;;5091571;28;20031;-65
2021/04/07 08:37:34;;;;;;;3.83;1.00;;;6.60;62.80;;;;;;5092114;28;20020;-64
2021/04/07 08:40:12;;;;;;;1.67;0.93;;;6.40;62.80;;;;;;5091818;28;20035;-65
2021/04/07 08:42:40;;;;;;;5.35;1.33;;;6.20;62.30;;;;;;5091925;28;20468;-66
2021/04/07 08:45:09;;;;;;;2.95;0.80;;;6.10;62.60;;;;;;5090415;28;20032;-66
2021/04/07 08:47:43;;;;;;;1.63;0.80;;;6.10;63.40;;;;;;5091766;28;20401;-66
2021/04/07 08:50:10;;;;;;;3.80;1.05;;;6.20;63.60;;;;;;5091725;28;20036;-67
2021/04/07 08:52:46;;;;;;;2.92;0.60;;;6.30;63.40;;;;;;5092038;28;20035;-66
2021/04/07 08:55:32;;;;;;;1.80;0.80;;;6.40;62.70;;;;;;5091827;28;20066;-66
2021/04/07 08:58:00;;;;;;;2.58;0.75;;;6.40;62.30;;;;;;5090124;28;20486;-66
2021/04/07 09:00:28;;;;;;;4.15;1.08;;;6.50;61.50;;;;;;5091918;28;20122;-66
2021/04/07 09:02:55;;;;;;;1.92;0.77;;;7.70;81.60;;;;;;5091535;28;20024;-66
2021/04/07 09:05:35;;;;;;;3.22;0.90;;;7.80;60.70;;;;;;5071516;28;20021;-65
2021/04/07 09:08:02;;;;;;;3.40;1.30;;;7.40;59.10;;;;;;5071733;28;20379;-66
2021/04/07 09:10:48;;;;;;;4.40;0.82;;;7.00;59.30;;;;;;5071795;28;20040;-66
2021/04/07 09:13:19;;;;;;;6.57;1.00;;;6.70;59.70;;;;;;5071888;28;20021;-65
2021/04/07 09:15:49;;;;;;;;;;;6.50;60.00;;;;;;5071645;28;20388;-66
2021/04/07 09:18:17;;;;;;;6.80;1.00;;;6.30;58.90;;;;;;5071491;28;19950;-66
2021/04/07 09:20:52;;;;;;;3.35;0.90;;;6.30;60.10;;;;;;5071544;28;20391;-66
2021/04/07 09:23:44;;;;;;;2.00;0.85;;;6.20;60.00;;;;;;5071677;28;20357;-66
2021/04/07 09:26:17;;;;;;;3.00;0.98;;;6.20;60.40;;;;;;5057755;28;20039;-66
2021/04/07 09:28:49;;;;;;;1.15;0.70;;;6.20;60.80;;;;;;5071210;28;20025;-65
2021/04/07 09:31:25;;;;;;;4.22;1.00;;;6.20;60.30;;;;;;5083448;28;20028;-64
2021/04/07 09:33:55;;;;;;;3.65;0.90;;;6.20;59.90;;;;;;5091793;28;20032;-66
2021/04/07 09:36:26;;;;;;;3.63;0.90;;;6.20;59.80;;;;;;5091366;28;20472;-66
2021/04/07 09:38:54;;;;;;;3.13;0.80;;;6.20;60.10;;;;;;5091443;28;20024;-66
2021/04/07 09:41:23;;;;;;;1.42;0.68;;;6.20;59.60;;;;;;5095418;28;20061;-66
2021/04/07 09:43:49;;;;;;;1.02;0.70;;;6.20;59.50;;;;;;5094887;28;20036;-66
2021/04/07 09:46:15;;;;;;;2.70;0.82;;;6.20;59.00;;;;;;5095212;28;20043;-66
2021/04/07 09:48:47;;;;;;;3.28;1.00;;;6.20;59.20;;;;;;5094974;28;20107;-66
2021/04/07 09:51:31;;;;;;;6.45;1.90;;;6.30;59.50;;;;;;5094974;28;20020;-65
2021/04/07 09:54:12;;;;;;;3.08;0.82;;;6.40;59.40;;;;;;5095182;28;20024;-66
2021/04/07 09:56:53;;;;;;;5.40;0.90;;;6.40;58.60;;;;;;5092462;28;20069;-66
2021/04/07 09:59:29;;;;;;;3.38;1.42;;;6.40;58.70;;;;;;5094755;28;20028;-66
2021/04/07 10:01:54;;;;;;;1.52;0.70;;;6.60;60.00;;;;;;5094703;28;20082;-67
2021/04/07 10:04:28;;;;;;;10.80;1.05;;;6.70;59.60;;;;;;5094724;28;20027;-67
2021/04/07 10:06:54;;;;;;;3.75;0.88;;;6.80;59.10;;;;;;5094772;28;20081;-65
2021/04/07 10:09:29;;;;;;;3.20;0.70;;;6.90;58.40;;;;;;5094434;28;20449;-68
2021/04/07 10:11:55;;;;;;;1.08;0.73;;;6.90;57.80;;;;;;5092041;28;20016;-68
2021/04/07 10:14:21;;;;;;;2.72;0.98;;;7.00;57.40;;;;;;5102534;28;20056;-68
2021/04/07 10:16:47;;;;;;;2.30;0.80;;;7.00;57.20;;;;;;5100010;28;20357;-68
2021/04/07 10:19:13;;;;;;;2.17;0.65;;;7.00;57.70;;;;;;5094799;28;20107;-68
2021/04/07 10:21:42;;;;;;;10.27;1.10;;;7.10;57.30;;;;;;5094469;28;20028;-68
2021/04/07 10:24:09;;;;;;;1.57;0.60;;;7.10;56.80;;;;;;5094498;28;20450;-67
2021/04/07 10:26:44;;;;;;;1.17;0.73;;;7.10;55.20;;;;;;5093666;28;20765;-69
2021/04/07 10:29:25;;;;;;;0.85;0.70;;;7.10;56.40;;;;;;5093365;28;20032;-68
2021/04/07 10:31:56;;;;;;;1.02;0.93;;;7.10;55.90;;;;;;5091212;28;20013;-68
2021/04/07 10:34:33;;;;;;;3.75;1.08;;;7.20;56.30;;;;;;5093703;28;20034;-69
2021/04/07 10:37:00;;;;;;;4.15;0.85;;;7.20;55.80;;;;;;5087803;28;20024;-69
2021/04/07 10:39:35;;;;;;;6.10;1.02;;;7.30;55.90;;;;;;5094037;28;20402;-69
2021/04/07 10:42:02;;;;;;;1.58;0.70;;;7.30;55.40;;;;;;5094771;28;20059;-69
2021/04/07 10:44:30;;;;;;;3.53;0.65;;;7.30;55.60;;;;;;5075673;28;20044;-69
2021/04/07 10:46:56;;;;;;;1.50;0.57;;;7.40;55.60;;;;;;5093725;28;20073;-69
2021/04/07 10:49:23;;;;;;;1.40;0.70;;;7.50;55.00;;;;;;5094039;28;20054;-69
2021/04/07 10:52:06;;;;;;;3.22;0.73;;;7.50;55.10;;;;;;5092496;28;20047;-69
2021/04/07 10:54:33;;;;;;;4.25;0.70;;;7.50;55.30;;;;;;5093779;28;20158;-69
2021/04/07 10:57:10;;;;;;;2.33;0.70;;;7.50;55.20;;;;;;5093357;28;20028;-69
2021/04/07 10:59:37;;;;;;;7.35;0.80;;;7.50;54.90;;;;;;5093630;28;20024;-69
2021/04/07 11:02:16;;;;;;;5.13;0.88;;;7.60;54.50;;;;;;5093467;28;20107;-69
2021/04/07 11:04:41;;;;;;;8.23;1.00;;;7.60;55.00;;;;;;5093719;28;20399;-69
2021/04/07 11:07:12;;;;;;;2.95;0.85;;;7.60;54.60;;;;;;5093093;28;20023;-69
2021/04/07 11:09:49;;;;;;;5.32;0.75;;;7.70;54.60;;;;;;5073270;28;20399;-67
2021/04/07 11:12:16;;;;;;;10.27;1.08;;;7.60;54.30;;;;;;5073677;28;20024;-67
2021/04/07 11:15:03;;;;;;;3.88;0.80;;;7.70;54.20;;;;;;5073489;28;20056;-68
2021/04/07 11:17:29;;;;;;;3.35;0.63;;;7.60;53.40;;;;;;5073159;28;20016;-66
2021/04/07 11:19:55;;;;;;;3.80;0.85;;;7.70;53.90;;;;;;5082470;28;20154;-68
2021/04/07 11:22:20;;;;;;;1.02;0.68;;;7.70;53.60;;;;;;5091171;28;20020;-69
2021/04/07 11:24:46;;;;;;;4.05;0.70;;;7.70;53.60;;;;;;5092116;28;20023;-67
2021/04/07 11:27:12;;;;;;;1.05;0.50;;;7.70;53.30;;;;;;5091215;28;20034;-68
2021/04/07 11:29:38;;;;;;;1.55;0.60;;;8.30;58.20;;;;;;5092697;28;20032;-68
2021/04/07 11:32:06;;;;;;;1.27;0.52;;;8.30;52.90;;;;;;5092896;28;20395;-65
2021/04/07 11:40:00;;;;;;;6.95;0.77;;;8.00;51.70;;;;;;5093344;28;20110;-65
2021/04/07 11:44:47;;;;;;;1.38;0.60;;;7.90;51.70;;;;;;5092894;28;20024;-66
2021/04/07 11:47:13;;;;;;;1.92;0.65;;;7.90;51.60;;;;;;5091195;28;20024;-66
2021/04/07 11:49:39;;;;;;;5.68;0.85;;;7.90;51.20;;;;;;5092125;28;20024;-66
2021/04/07 11:52:06;;;;;;;6.75;0.98;;;7.90;51.70;;;;;;5092410;28;20020;-66
2021/04/07 11:54:32;;;;;;;11.48;1.10;;;7.90;52.00;;;;;;5092224;28;20059;-66
2021/04/07 11:56:58;;;;;;;1.25;0.60;;;7.90;52.00;;;;;;5092447;28;20074;-66
2021/04/07 11:59:24;;;;;;;1.27;0.60;;;8.00;51.80;;;;;;5092757;28;20024;-66
2021/04/07 12:01:54;;;;;;;8.57;0.90;;;7.90;51.20;;;;;;5092459;28;20066;-66
2021/04/07 12:04:23;;;;;;;1.48;0.68;;;7.80;51.20;;;;;;5092767;28;20036;-66
2021/04/07 12:06:49;;;;;;;3.50;0.73;;;7.70;51.50;;;;;;5092295;28;20114;-66
2021/04/07 12:09:14;;;;;;;2.22;0.50;;;7.70;54.30;;;;;;5092321;28;20055;-66
2021/04/07 12:11:40;;;;;;;2.38;0.70;;;8.00;53.00;;;;;;5092606;28;20073;-67
2021/04/07 12:14:08;;;;;;;0.93;0.60;;;7.90;51.40;;;;;;5092070;28;20040;-67
2021/04/07 12:16:35;;;;;;;2.05;0.70;;;7.70;51.20;;;;;;5092227;28;20025;-67
2021/04/07 12:19:01;;;;;;;2.38;0.75;;;7.60;51.20;;;;;;5092288;28;20070;-67
2021/04/07 12:21:27;;;;;;;7.20;0.80;;;7.50;51.10;;;;;;5092456;28;20020;-67
2021/04/07 12:23:52;;;;;;;3.50;0.68;;;7.40;51.10;;;;;;5092169;28;20399;-67
2021/04/07 12:26:18;;;;;;;1.90;0.47;;;7.40;51.50;;;;;;5092150;28;20500;-69
2021/04/07 12:28:47;;;;;;;2.25;0.63;;;7.40;51.40;;;;;;5092124;28;20024;-68
2021/04/07 12:31:16;;;;;;;3.72;0.73;;;7.40;51.80;;;;;;5091885;28;20020;-70
2021/04/07 12:33:49;;;;;;;2.47;0.47;;;7.50;51.90;;;;;;5092198;28;20033;-70
2021/04/07 12:36:15;;;;;;;1.77;0.60;;;7.50;52.10;;;;;;5092143;28;20024;-70
2021/04/07 12:38:41;;;;;;;3.05;0.60;;;7.60;51.90;;;;;;5091944;28;20353;-69
2021/04/07 12:41:18;;;;;;;1.52;0.60;;;7.60;51.20;;;;;;5091667;28;20398;-69
2021/04/07 12:43:44;;;;;;;3.03;0.68;;;7.50;51.50;;;;;;5091408;28;20051;-69
2021/04/07 12:46:10;;;;;;;6.25;0.90;;;7.50;51.70;;;;;;5092059;28;20020;-69
2021/04/07 12:48:36;;;;;;;4.78;0.80;;;7.50;51.30;;;;;;5092241;28;20590;-69
2021/04/07 12:51:02;;;;;;;4.05;0.75;;;7.50;52.00;;;;;;5091491;28;20589;-68
2021/04/07 12:53:27;;;;;;;7.32;0.65;;;7.60;52.00;;;;;;5091791;28;20024;-68
2021/04/07 12:55:53;;;;;;;2.78;0.70;;;7.60;51.80;;;;;;5092193;28;20051;-69
2021/04/07 12:58:19;;;;;;;11.48;1.55;;;7.60;51.70;;;;;;5090984;28;20028;-69
2021/04/07 13:00:45;;;;;;;7.40;1.00;;;7.60;51.40;;;;;;5091506;28;20032;-70
2021/04/07 13:03:10;;;;;;;6.03;0.90;;;7.60;51.00;;;;;;5091526;28;20500;-69
2021/04/07 13:05:36;;;;;;;3.35;0.70;;;7.60;50.80;;;;;;5091780;28;20065;-70
2021/04/07 13:08:02;;;;;;;2.45;0.70;;;7.60;51.00;;;;;;5091241;28;20041;-70
2021/04/07 13:10:29;;;;;;;0.50;0.50;;;7.60;51.20;;;;;;5091423;28;20095;-67
2021/04/07 13:12:55;;;;;;;0.63;0.50;;;7.60;51.30;;;;;;5092959;28;20479;-68
2021/04/07 13:15:20;;;;;;;0.55;0.50;;;7.50;53.60;;;;;;5093819;28;20135;-68
2021/04/07 13:17:46;;;;;;;0.70;0.60;;;7.40;54.90;;;;;;5095355;28;20111;-67
2021/04/07 13:20:17;;;;;;;1.00;0.60;;;7.30;55.30;;;;;;5095449;28;20067;-68
2021/04/07 13:22:43;;;;;;;2.72;0.60;;;7.30;55.40;;;;;;5095123;28;20039;-68
2021/04/07 13:25:10;;;;;;;1.73;0.63;;;7.30;55.50;;;;;;5094935;28;20036;-68
2021/04/07 13:27:35;;;;;;;2.35;0.60;;;7.30;55.50;;;;;;5094624;28;20479;-68
2021/04/07 13:30:04;;;;;;;0.93;0.60;;;7.30;55.10;;;;;;5095046;28;20024;-68
2021/04/07 13:32:30;;;;;;;1.00;0.60;;;7.30;55.60;;;;;;5094879;28;20031;-68
2021/04/07 13:35:12;;;;;;;1.08;0.90;;;7.30;55.30;;;;;;5092246;28;20020;-67
2021/04/07 13:40:10;;;;;;;2.30;0.70;;;7.30;55.40;;;;;;5092976;28;20024;-67
2021/04/07 13:45:08;;;;;;;3.95;0.77;;;7.30;55.00;;;;;;5091234;28;20067;-68
2021/04/07 13:47:34;;;;;;;4.43;0.93;;;7.30;55.30;;;;;;5097690;28;20050;-69
2021/04/07 13:50:00;;;;;;;4.55;0.90;;;7.30;55.40;;;;;;5095562;28;20021;-69
2021/04/07 13:52:25;;;;;;;1.70;0.70;;;7.40;56.00;;;;;;5096076;28;20023;-68
2021/04/07 13:54:53;;;;;;;5.35;0.75;;;7.40;54.60;;;;;;5095019;28;20051;-68
2021/04/07 13:57:28;;;;;;;7.75;0.98;;;7.40;54.20;;;;;;5095760;28;20024;-69
2021/04/07 13:59:58;;;;;;;3.17;0.70;;;7.40;53.90;;;;;;5093086;28;20541;-68
2021/04/07 14:02:28;;;;;;;1.25;0.70;;;7.40;53.50;;;;;;5093499;28;20601;-68
2021/04/07 14:04:54;;;;;;;2.03;0.82;;;7.40;53.10;;;;;;5094612;28;20028;-68
2021/04/07 14:07:20;;;;;;;4.22;0.60;;;7.50;52.80;;;;;;5094855;28;20070;-67
2021/04/07 14:09:47;;;;;;;1.05;0.50;;;7.50;53.20;;;;;;5094636;28;20052;-68
2021/04/07 14:12:15;;;;;;;3.13;0.73;;;7.50;53.30;;;;;;5094754;28;20074;-69
2021/04/07 14:14:41;;;;;;;5.25;0.85;;;7.60;53.30;;;;;;5094449;28;20514;-69
2021/04/07 14:17:06;;;;;;;3.05;0.70;;;7.60;53.20;;;;;;5093760;28;20028;-67
2021/04/07 14:19:32;;;;;;;1.75;0.60;;;7.70;53.80;;;;;;5094818;28;20024;-67
2021/04/07 14:21:58;;;;;;;11.75;0.60;;;7.70;53.70;;;;;;5094230;28;20031;-66
2021/04/07 14:24:24;;;;;;;0.95;0.60;;;7.70;53.40;;;;;;5099885;28;20036;-66
2021/04/07 14:26:49;;;;;;;1.08;0.50;;;7.70;53.10;;;;;;5094403;28;20468;-67
2021/04/07 14:29:15;;;;;;;1.65;0.60;;;7.70;53.10;;;;;;5094466;28;20534;-67
2021/04/07 14:31:43;;;;;;;4.82;0.70;;;7.70;54.10;;;;;;5097085;28;20054;-67
2021/04/07 14:34:10;;;;;;;0.77;0.70;;;7.60;53.50;;;;;;5094231;28;20020;-67
2021/04/07 14:36:36;;;;;;;2.40;0.50;;;7.50;53.40;;;;;;5097728;28;20028;-69
2021/04/07 14:39:04;;;;;;;3.47;0.90;;;7.40;53.70;;;;;;5094782;28;20039;-67
2021/04/07 14:41:29;;;;;;;1.85;0.55;;;7.40;54.00;;;;;;5094335;28;20024;-68
2021/04/07 14:43:55;;;;;;;1.15;0.50;;;7.30;54.00;;;;;;5094287;28;20127;-68
2021/04/07 14:46:24;;;;;;;2.80;0.65;;;7.30;54.20;;;;;;5093689;28;20059;-68
2021/04/07 14:48:50;;;;;;;1.23;0.65;;;7.30;54.50;;;;;;5094175;28;20032;-69
2021/04/07 14:51:39;;;;;;;8.23;1.08;;;7.30;54.80;;;;;;5093518;28;20043;-69
2021/04/07 14:54:08;;;;;;;5.20;0.90;;;7.30;54.90;;;;;;5092901;28;20081;-69
2021/04/07 14:56:33;;;;;;;3.47;1.50;;;7.40;54.80;;;;;;5093762;28;20069;-68
2021/04/07 14:58:59;;;;;;;3.17;0.50;;;7.40;57.30;;;;;;5093639;28;20031;-68
2021/04/07 15:01:25;;;;;;;2.33;0.70;;;7.50;56.10;;;;;;5093207;28;20020;-67
2021/04/07 15:03:51;;;;;;;3.25;0.82;;;7.50;54.90;;;;;;5092813;28;20182;-69
2021/04/07 15:06:17;;;;;;;0.85;0.68;;;7.70;57.50;;;;;;5091587;28;20069;-70
2021/04/07 15:08:45;;;;;;;9.27;0.88;;;7.50;54.10;;;;;;5093388;28;20123;-69
2021/04/07 15:11:11;;;;;;;4.57;0.80;;;7.30;53.90;;;;;;5093342;28;20028;-69
2021/04/07 15:13:37;;;;;;;1.13;0.70;;;7.10;53.40;;;;;;5093465;28;20028;-69
2021/04/07 15:16:05;;;;;;;13.85;1.63;;;7.00;53.70;;;;;;5092935;28;20102;-69
2021/04/07 15:18:33;;;;;;;5.30;0.47;;;6.90;53.70;;;;;;5093383;28;20020;-69
2021/04/07 15:20:59;;;;;;;3.28;0.52;;;6.90;53.90;;;;;;5093466;28;20073;-69
2021/04/07 15:23:25;;;;;;;4.97;0.80;;;6.90;53.00;;;;;;5093124;28;20522;-69
2021/04/07 15:25:55;;;;;;;7.65;0.82;;;6.70;52.30;;;;;;5093539;28;20028;-69
2021/04/07 15:30:56;;;;;;;6.15;0.65;;;6.60;52.40;;;;;;5093420;28;20110;-69
2021/04/07 15:33:22;;;;;;;2.80;0.75;;;6.50;52.20;;;;;;5093236;28;20056;-69
2021/04/07 15:35:48;;;;;;;1.90;0.70;;;6.40;51.80;;;;;;5093195;28;20415;-68
2021/04/07 15:38:13;;;;;;;2.10;0.60;;;6.40;52.10;;;;;;5092270;28;20027;-69
2021/04/07 15:40:39;;;;;;;3.83;0.60;;;6.30;52.20;;;;;;5093235;28;20023;-69
2021/04/07 15:43:05;;;;;;;2.53;0.70;;;6.30;52.30;;;;;;5092531;28;20364;-69
2021/04/07 15:45:31;;;;;;;2.47;0.68;;;6.20;52.20;;;;;;5092729;28;20067;-70
2021/04/07 15:47:56;;;;;;;2.92;0.70;;;6.20;52.20;;;;;;5092766;28;20024;-70
2021/04/07 15:50:23;;;;;;;3.25;0.82;;;6.20;53.00;;;;;;5092750;28;20032;-71
2021/04/07 15:52:48;;;;;;;4.20;0.57;;;6.20;53.20;;;;;;5092488;28;20024;-67
2021/04/07 15:55:14;;;;;;;2.30;0.70;;;6.10;53.20;;;;;;5092497;28;20020;-67
2021/04/07 15:57:40;;;;;;;4.28;0.60;;;6.10;55.50;;;;;;5092074;28;20450;-67
2021/04/07 16:00:06;;;;;;;3.38;0.60;;;6.70;63.40;;;;;;5092445;28;20016;-68
2021/04/07 16:02:32;;;;;;;3.15;0.80;;;7.50;65.80;;;;;;5074454;28;20129;-68
2021/04/07 16:04:58;;;;;;;5.43;0.73;;;7.40;54.40;;;;;;5092362;28;20032;-67
2021/04/07 16:07:24;;;;;;;2.78;0.65;;;7.00;52.80;;;;;;5092224;28;20149;-67
2021/04/07 16:09:50;;;;;;;2.25;0.70;;;6.70;53.20;;;;;;5092590;28;20027;-67
2021/04/07 16:12:16;;;;;;;5.95;0.90;;;6.50;53.10;;;;;;5092262;28;20020;-68
2021/04/07 16:14:42;;;;;;;11.35;1.10;;;6.40;53.40;;;;;;5092218;28;20134;-67
2021/04/07 16:17:08;;;;;;;16.83;1.40;;;6.30;53.70;;;;;;5092402;28;20158;-67
2021/04/07 16:19:35;;;;;;;9.32;0.75;;;6.20;53.80;;;;;;5092597;28;20081;-67
2021/04/07 16:22:01;;;;;;;3.92;0.77;;;6.20;53.70;;;;;;5092134;28;20027;-67
2021/04/07 16:24:27;;;;;;;5.70;0.93;;;6.20;53.90;;;;;;5092023;28;20059;-67
2021/04/07 16:26:53;;;;;;;8.13;0.82;;;6.10;54.20;;;;;;5092460;28;20524;-67
2021/04/07 16:29:22;;;;;;;7.00;0.73;;;6.00;54.50;;;;;;5091795;28;20020;-68
2021/04/07 16:31:48;;;;;;;0.90;0.60;;;6.00;54.90;;;;;;5074087;28;20024;-67
2021/04/07 16:34:13;;;;;;;4.55;0.70;;;5.90;55.00;;;;;;5092295;28;20433;-67
2021/04/07 16:36:39;;;;;;;3.28;0.60;;;5.90;55.00;;;;;;5092077;28;20460;-67
2021/04/07 16:39:05;;;;;;;6.68;1.10;;;5.80;55.20;;;;;;5092359;28;20020;-67
2021/04/07 16:41:31;;;;;;;2.83;0.60;;;5.70;55.30;;;;;;5091828;28;20020;-67
2021/04/07 16:43:57;;;;;;;2.78;0.70;;;5.70;55.40;;;;;;5092142;28;20085;-67
2021/04/07 16:46:23;;;;;;;2.60;0.68;;;5.60;55.60;;;;;;5091763;28;20454;-67
2021/04/07 16:48:49;;;;;;;1.90;0.65;;;5.60;55.80;;;;;;5092254;28;20033;-67
2021/04/07 16:51:18;;;;;;;11.82;1.90;;;5.60;56.10;;;;;;5095678;28;20080;-66
2021/04/07 16:53:43;;;;;;;3.20;1.30;;;6.40;72.80;;;;;;5096330;28;20035;-66
2021/04/07 16:56:09;;;;;;;4.25;1.65;;;8.30;79.70;;;;;;5095919;28;20020;-66
2021/04/07 16:58:35;;;;;;;5.93;1.35;;;9.70;78.40;;;;;;5096059;28;20056;-68
2021/04/07 17:01:01;;;;;;;3.58;0.70;;;10.50;65.70;;;;;;5096400;28;20031;-68
2021/04/07 17:03:26;;;;;;;9.65;1.60;;;9.50;53.90;;;;;;5095298;28;20141;-67
2021/04/07 17:05:52;;;;;;;5.68;0.93;;;8.50;53.90;;;;;;5095047;28;20111;-67
2021/04/07 17:08:18;;;;;;;2.75;0.90;;;7.70;54.50;;;;;;5095474;28;20022;-66
2021/04/07 17:10:43;;;;;;;3.42;1.02;;;7.20;55.50;;;;;;5095316;28;20514;-67
2021/04/07 17:13:09;;;;;;;3.90;0.80;;;6.90;55.90;;;;;;5095523;28;20020;-67
2021/04/07 17:15:35;;;;;;;6.22;1.30;;;6.60;56.30;;;;;;5095111;28;20525;-66
2021/04/07 17:18:01;;;;;;;3.95;0.73;;;6.40;56.80;;;;;;5095512;28;20020;-67
2021/04/07 17:20:26;;;;;;;13.32;1.10;;;6.20;56.80;;;;;;5095274;28;20093;-67
2021/04/07 17:22:52;;;;;;;15.20;1.55;;;6.10;57.20;;;;;;5095392;28;20067;-66
2021/04/07 17:25:18;;;;;;;5.20;1.10;;;6.00;57.20;;;;;;5095528;28;20025;-67
2021/04/07 17:27:44;;;;;;;8.40;0.88;;;5.90;57.40;;;;;;5095472;28;20024;-66
2021/04/07 17:30:12;;;;;;;7.80;1.27;;;5.80;57.50;;;;;;5095517;28;20024;-66
2021/04/07 17:32:37;;;;;;;3.45;0.70;;;5.70;57.60;;;;;;5095626;28;20025;-67